Time;durP1;ratioP1;P1;durP2;ratioP2;P2;SDS_P1;SDS_P2;PMS_P1;PMS_P2;Temp;Humidity;BMP_temperature;BMP_pressure;BME280_temperature;BME280_humidity;BME280_pressure;Samples;Min_cycle;Max_cycle;Signal;HPM_P1;HPM_P2
2021/08/29 00:01:17;;;;;;;7.00;6.30;;;18.60;99.90;;;;;;5050837;28;20423;-68
2021/08/29 00:03:43;;;;;;;7.47;5.67;;;18.60;99.90;;;;;;5051885;28;20181;-68
2021/08/29 00:06:09;;;;;;;6.70;6.30;;;18.60;99.90;;;;;;5051356;28;20405;-68
2021/08/29 00:08:35;;;;;;;5.97;5.37;;;18.60;99.90;;;;;;5050422;28;20177;-68
2021/08/29 00:11:01;;;;;;;6.20;5.70;;;18.70;99.90;;;;;;5051280;28;20181;-69
2021/08/29 00:13:27;;;;;;;7.03;6.47;;;18.70;99.90;;;;;;5051845;28;20615;-69
2021/08/29 00:15:53;;;;;;;7.20;6.50;;;18.70;99.90;;;;;;5032336;28;20448;-68
2021/08/29 00:18:18;;;;;;;6.53;6.03;;;18.80;99.90;;;;;;5031291;28;20409;-68
2021/08/29 00:20:45;;;;;;;6.40;6.00;;;18.80;99.90;;;;;;5032064;28;20475;-68
2021/08/29 00:23:11;;;;;;;7.97;5.93;;;18.80;99.90;;;;;;5031252;28;20206;-69
2021/08/29 00:25:37;;;;;;;6.43;5.83;;;18.90;99.90;;;;;;5031693;28;20447;-68
2021/08/29 00:28:03;;;;;;;6.27;5.87;;;18.90;99.90;;;;;;5031506;28;20924;-68
2021/08/29 00:30:29;;;;;;;6.17;5.77;;;18.90;99.90;;;;;;5031745;28;20602;-68
2021/08/29 00:32:55;;;;;;;6.53;6.03;;;19.00;99.90;;;;;;5031818;28;20441;-68
2021/08/29 00:35:21;;;;;;;5.90;5.50;;;19.00;99.90;;;;;;5045159;28;20924;-68
2021/08/29 00:37:47;;;;;;;5.90;5.50;;;19.10;99.90;;;;;;5051838;28;20228;-68
2021/08/29 00:40:16;;;;;;;5.50;5.10;;;19.00;99.90;;;;;;5051034;28;20887;-68
2021/08/29 00:42:45;;;;;;;5.60;5.00;;;19.00;99.90;;;;;;5052848;28;20178;-68
2021/08/29 00:45:11;;;;;;;5.67;5.27;;;19.00;99.90;;;;;;5055207;28;20418;-69
2021/08/29 00:47:37;;;;;;;8.07;5.20;;;18.90;99.90;;;;;;5055375;28;20904;-69
2021/08/29 00:50:05;;;;;;;6.77;6.27;;;18.80;99.90;;;;;;5054738;28;20223;-69
2021/08/29 00:52:33;;;;;;;5.23;4.90;;;18.80;99.90;;;;;;5055585;28;20486;-68
2021/08/29 00:54:59;;;;;;;5.77;5.37;;;18.80;99.90;;;;;;5054254;28;20423;-75
2021/08/29 00:57:25;;;;;;;6.00;5.50;;;18.80;99.90;;;;;;5055434;28;20461;-68
2021/08/29 00:59:50;;;;;;;5.80;5.30;;;18.80;99.90;;;;;;5055482;28;20491;-68
2021/08/29 01:02:23;;;;;;;7.23;6.33;;;18.80;99.90;;;;;;5054606;28;20185;-68
2021/08/29 01:05:13;;;;;;;7.97;5.93;;;18.70;99.90;;;;;;5055565;28;20173;-68
2021/08/29 01:08:02;;;;;;;6.27;5.80;;;18.70;99.90;;;;;;5055774;28;20431;-68
2021/08/29 01:10:34;;;;;;;6.20;5.70;;;18.70;99.90;;;;;;5042975;28;20447;-68
2021/08/29 01:13:00;;;;;;;6.00;5.47;;;18.60;99.90;;;;;;5054775;28;20461;-74
2021/08/29 01:15:32;;;;;;;5.80;5.40;;;18.60;99.90;;;;;;5036128;28;20427;-68
2021/08/29 01:17:59;;;;;;;7.00;6.40;;;18.60;99.90;;;;;;5055263;28;20489;-68
2021/08/29 01:20:49;;;;;;;7.27;6.67;;;18.60;99.90;;;;;;5054842;28;20408;-68
2021/08/29 01:23:15;;;;;;;6.53;6.03;;;18.60;99.90;;;;;;5054343;28;20381;-69
2021/08/29 01:25:53;;;;;;;6.27;5.77;;;18.60;99.90;;;;;;5055059;28;20440;-68
2021/08/29 01:28:24;;;;;;;6.90;6.40;;;18.60;99.90;;;;;;5054028;28;20246;-68
2021/08/29 01:30:50;;;;;;;7.20;5.53;;;18.60;99.90;;;;;;5055010;28;20397;-68
2021/08/29 01:33:18;;;;;;;6.90;6.20;;;18.60;99.90;;;;;;5053903;28;20817;-69
2021/08/29 01:35:44;;;;;;;6.53;5.90;;;18.60;99.90;;;;;;5054194;28;20918;-68
2021/08/29 01:38:11;;;;;;;6.73;6.23;;;18.60;99.90;;;;;;5052371;28;20420;-68
2021/08/29 01:40:37;;;;;;;6.33;5.93;;;18.50;99.90;;;;;;5054776;28;20400;-70
2021/08/29 01:43:04;;;;;;;7.70;5.93;;;18.50;99.90;;;;;;5054131;28;20408;-75
2021/08/29 01:45:32;;;;;;;6.77;5.83;;;18.60;99.90;;;;;;5054669;28;20420;-68
2021/08/29 01:47:59;;;;;;;7.00;6.50;;;18.60;99.90;;;;;;5054037;28;20484;-68
2021/08/29 01:50:26;;;;;;;7.20;6.60;;;18.60;99.90;;;;;;5035440;28;20629;-68
2021/08/29 01:52:52;;;;;;;6.67;6.07;;;18.60;99.90;;;;;;5034518;28;20443;-68
2021/08/29 01:55:18;;;;;;;6.00;5.60;;;18.50;99.90;;;;;;5032550;28;20413;-68
2021/08/29 01:57:44;;;;;;;9.50;6.47;;;18.60;99.90;;;;;;5034530;28;20201;-68
2021/08/29 02:00:10;;;;;;;6.20;5.60;;;18.60;99.90;;;;;;5033872;28;20644;-68
2021/08/29 02:02:36;;;;;;;6.53;5.90;;;18.60;99.90;;;;;;5034346;28;20179;-68
2021/08/29 02:05:02;;;;;;;7.33;6.60;;;18.60;99.90;;;;;;5034166;28;20484;-72
2021/08/29 02:07:40;;;;;;;6.20;5.80;;;18.50;99.90;;;;;;5033859;28;20171;-69
2021/08/29 02:10:11;;;;;;;5.90;5.50;;;18.50;99.90;;;;;;5034702;28;20424;-75
2021/08/29 02:12:47;;;;;;;7.43;6.30;;;18.50;99.90;;;;;;5034501;28;20951;-68
2021/08/29 02:15:17;;;;;;;6.67;6.17;;;18.50;99.90;;;;;;5033105;28;20412;-68
2021/08/29 02:17:43;;;;;;;6.80;6.30;;;18.50;99.90;;;;;;5034063;28;20413;-68
2021/08/29 02:20:18;;;;;;;7.07;6.50;;;18.40;99.90;;;;;;5015785;28;20412;-69
2021/08/29 02:22:44;;;;;;;6.63;6.07;;;18.40;99.90;;;;;;5034430;28;20405;-68
2021/08/29 02:25:10;;;;;;;7.20;6.60;;;18.40;99.90;;;;;;5033123;28;20413;-68
2021/08/29 02:27:37;;;;;;;7.63;6.93;;;18.40;99.90;;;;;;5033944;28;20786;-68
2021/08/29 02:30:05;;;;;;;8.80;6.77;;;18.40;99.90;;;;;;5051191;28;20416;-68
2021/08/29 02:32:31;;;;;;;6.50;6.00;;;18.40;99.90;;;;;;5052872;28;20456;-68
2021/08/29 02:34:57;;;;;;;8.07;7.40;;;18.50;99.90;;;;;;5053741;28;20454;-69
2021/08/29 02:37:25;;;;;;;7.77;7.10;;;18.50;99.90;;;;;;5052413;28;20420;-69
2021/08/29 02:39:53;;;;;;;8.50;7.77;;;18.50;99.90;;;;;;5053596;28;20758;-69
2021/08/29 02:42:20;;;;;;;7.93;7.13;;;18.50;99.90;;;;;;5052812;28;20423;-69
2021/08/29 02:44:46;;;;;;;7.43;6.83;;;18.50;99.90;;;;;;5053791;28;20439;-69
2021/08/29 02:47:12;;;;;;;7.90;7.30;;;18.50;99.90;;;;;;5052736;28;20464;-69
2021/08/29 02:49:38;;;;;;;8.37;7.57;;;18.50;99.90;;;;;;5038579;28;20508;-68
2021/08/29 02:52:05;;;;;;;8.23;7.47;;;18.50;99.90;;;;;;5015786;28;20538;-68
2021/08/29 02:54:34;;;;;;;7.63;6.87;;;18.50;99.90;;;;;;5033200;28;20466;-69
2021/08/29 02:57:00;;;;;;;7.03;6.43;;;18.50;99.90;;;;;;5033379;28;20424;-68
2021/08/29 02:59:26;;;;;;;7.27;6.70;;;18.50;99.90;;;;;;5032542;28;20558;-68
2021/08/29 03:01:52;;;;;;;7.80;7.00;;;18.50;99.90;;;;;;5033030;28;20501;-68
2021/08/29 03:04:18;;;;;;;8.30;7.37;;;18.60;99.90;;;;;;5032826;28;20956;-69
2021/08/29 03:06:44;;;;;;;7.67;6.90;;;18.60;99.90;;;;;;5032488;28;20178;-69
2021/08/29 03:09:10;;;;;;;8.03;7.07;;;18.60;99.90;;;;;;5032636;28;20181;-75
2021/08/29 03:11:37;;;;;;;7.33;6.73;;;18.60;99.90;;;;;;5015610;28;20252;-69
2021/08/29 03:14:02;;;;;;;6.70;6.10;;;18.60;99.90;;;;;;5032816;28;20817;-69
2021/08/29 03:16:30;;;;;;;8.60;6.40;;;18.60;99.90;;;;;;5032231;28;20425;-69
2021/08/29 03:18:58;;;;;;;7.87;6.90;;;18.60;99.90;;;;;;5033308;28;20417;-69
2021/08/29 03:21:24;;;;;;;9.73;8.13;;;18.60;99.90;;;;;;5032100;28;20413;-69
2021/08/29 03:23:50;;;;;;;8.90;7.43;;;18.60;99.90;;;;;;5032172;28;20426;-68
2021/08/29 03:26:16;;;;;;;8.50;7.70;;;18.70;99.90;;;;;;5032100;28;20900;-69
2021/08/29 03:28:42;;;;;;;9.13;7.53;;;18.60;99.90;;;;;;5033072;28;20749;-68
2021/08/29 03:31:08;;;;;;;8.70;7.13;;;18.60;99.90;;;;;;5032344;28;20416;-75
2021/08/29 03:33:34;;;;;;;8.03;7.43;;;18.60;99.90;;;;;;5032143;28;20209;-68
2021/08/29 03:36:01;;;;;;;7.60;7.03;;;18.70;99.90;;;;;;5032701;28;20669;-69
2021/08/29 03:38:28;;;;;;;7.87;7.27;;;18.60;99.90;;;;;;5032163;28;21241;-68
2021/08/29 03:40:56;;;;;;;7.17;6.47;;;18.60;99.90;;;;;;5032656;28;20413;-68
2021/08/29 03:43:22;;;;;;;8.47;7.67;;;18.60;99.90;;;;;;5031895;28;20424;-69
2021/08/29 03:45:48;;;;;;;8.07;7.47;;;18.60;99.90;;;;;;5032558;28;20773;-68
2021/08/29 03:48:14;;;;;;;8.30;7.50;;;18.60;99.90;;;;;;5031629;28;20797;-69
2021/08/29 03:50:40;;;;;;;10.13;7.80;;;18.60;99.90;;;;;;5032489;28;20413;-68
2021/08/29 03:53:06;;;;;;;7.37;6.83;;;18.60;99.90;;;;;;5032343;28;20457;-69
2021/08/29 03:55:33;;;;;;;8.47;7.67;;;18.60;99.90;;;;;;5031610;28;21090;-69
2021/08/29 03:57:59;;;;;;;9.03;8.17;;;18.60;99.90;;;;;;5032419;28;20401;-69
2021/08/29 04:00:25;;;;;;;8.40;7.80;;;18.50;99.90;;;;;;5031242;28;20405;-69
2021/08/29 04:02:51;;;;;;;8.63;7.93;;;18.50;99.90;;;;;;5032429;28;20673;-69
2021/08/29 04:05:17;;;;;;;7.97;7.17;;;18.50;99.90;;;;;;5031444;28;20408;-69
2021/08/29 04:07:43;;;;;;;8.60;7.83;;;18.50;99.90;;;;;;5014626;28;20401;-69
2021/08/29 04:10:10;;;;;;;8.60;7.83;;;18.50;99.90;;;;;;5032122;28;20413;-74
2021/08/29 04:12:39;;;;;;;9.10;8.20;;;18.50;99.90;;;;;;5032045;28;20457;-68
2021/08/29 04:15:07;;;;;;;10.40;8.23;;;18.50;99.90;;;;;;5032341;28;20409;-69
2021/08/29 04:17:35;;;;;;;8.87;8.07;;;18.50;99.90;;;;;;5029987;28;20413;-69
2021/08/29 04:20:03;;;;;;;10.10;8.10;;;18.50;99.90;;;;;;5032127;28;20410;-69
2021/08/29 04:22:30;;;;;;;9.20;7.77;;;18.50;99.90;;;;;;5031481;28;20444;-69
2021/08/29 04:24:56;;;;;;;8.80;8.10;;;18.60;99.90;;;;;;5031783;28;20409;-69
2021/08/29 04:27:22;;;;;;;9.07;8.27;;;18.60;99.90;;;;;;5031172;28;20891;-69
2021/08/29 04:29:49;;;;;;;8.73;8.00;;;18.60;99.90;;;;;;5031799;28;20410;-69
2021/08/29 04:32:15;;;;;;;9.87;8.87;;;18.60;99.90;;;;;;5031114;28;20452;-74
2021/08/29 04:34:41;;;;;;;8.40;7.50;;;18.70;99.90;;;;;;5031954;28;20409;-69
2021/08/29 04:37:07;;;;;;;9.10;8.10;;;18.70;99.90;;;;;;5031663;28;20544;-69
2021/08/29 04:39:37;;;;;;;8.53;7.90;;;18.70;99.90;;;;;;5030806;28;20493;-69
2021/08/29 04:42:03;;;;;;;8.00;7.40;;;18.70;99.90;;;;;;5034826;28;20431;-69
2021/08/29 04:44:29;;;;;;;8.87;8.17;;;18.80;99.90;;;;;;5050388;28;20436;-69
2021/08/29 04:46:55;;;;;;;8.40;7.80;;;18.80;99.90;;;;;;5051998;28;20422;-68
2021/08/29 04:49:20;;;;;;;9.47;8.60;;;18.80;99.90;;;;;;5051029;28;20217;-69
2021/08/29 04:51:46;;;;;;;13.80;8.23;;;18.80;99.90;;;;;;5051395;28;20674;-69
2021/08/29 04:54:12;;;;;;;7.90;7.40;;;18.80;99.90;;;;;;5051553;28;20245;-74
2021/08/29 04:56:38;;;;;;;8.50;7.60;;;18.80;99.90;;;;;;5051027;28;20483;-69
2021/08/29 04:59:04;;;;;;;8.47;7.60;;;18.80;99.90;;;;;;5034234;28;20812;-69
2021/08/29 05:01:31;;;;;;;9.20;8.40;;;18.80;99.90;;;;;;5048427;28;20189;-68
2021/08/29 05:04:00;;;;;;;9.33;7.77;;;18.90;99.90;;;;;;5031753;28;20261;-68
2021/08/29 05:06:27;;;;;;;10.33;8.33;;;18.90;99.90;;;;;;5013424;28;20440;-69
2021/08/29 05:08:53;;;;;;;9.03;8.20;;;18.90;99.90;;;;;;5031751;28;20428;-69
2021/08/29 05:11:22;;;;;;;9.20;8.30;;;18.90;99.90;;;;;;5030666;28;20411;-69
2021/08/29 05:13:48;;;;;;;12.13;8.50;;;18.90;99.90;;;;;;5031287;28;20469;-69
2021/08/29 05:16:14;;;;;;;9.03;8.17;;;18.90;99.90;;;;;;5033795;28;20416;-75
2021/08/29 05:18:39;;;;;;;8.93;8.13;;;18.90;99.90;;;;;;5051118;28;20509;-68
2021/08/29 05:21:05;;;;;;;11.27;8.70;;;19.00;99.90;;;;;;5051557;28;20174;-68
2021/08/29 05:23:31;;;;;;;8.87;8.00;;;18.90;99.90;;;;;;5050331;28;20274;-68
2021/08/29 05:25:58;;;;;;;8.60;7.70;;;18.90;99.90;;;;;;5051784;28;20196;-68
2021/08/29 05:28:24;;;;;;;8.90;8.20;;;18.90;99.90;;;;;;5051397;28;20182;-68
2021/08/29 05:30:50;;;;;;;7.93;7.13;;;19.00;99.90;;;;;;5054133;28;20415;-68
2021/08/29 05:33:15;;;;;;;9.23;8.40;;;19.00;99.90;;;;;;5054559;28;20213;-74
2021/08/29 05:35:41;;;;;;;8.70;7.97;;;19.00;99.90;;;;;;5036647;28;20617;-68
2021/08/29 05:38:07;;;;;;;9.43;8.57;;;19.00;99.90;;;;;;5054500;28;20312;-68
2021/08/29 05:40:33;;;;;;;9.63;8.23;;;19.00;99.90;;;;;;5054306;28;20752;-68
2021/08/29 05:42:58;;;;;;;11.67;9.33;;;19.00;99.90;;;;;;5054705;28;20189;-68
2021/08/29 05:45:24;;;;;;;11.93;7.90;;;19.10;99.90;;;;;;5043988;28;20626;-68
2021/08/29 05:47:50;;;;;;;8.97;8.13;;;19.00;99.90;;;;;;5034566;28;20233;-68
2021/08/29 05:50:15;;;;;;;10.63;8.67;;;19.10;99.90;;;;;;5035871;28;20616;-74
2021/08/29 05:52:41;;;;;;;9.07;8.27;;;19.10;99.90;;;;;;5033984;28;20213;-69
2021/08/29 05:55:07;;;;;;;8.23;7.60;;;19.10;99.90;;;;;;5034109;28;20681;-68
2021/08/29 05:57:34;;;;;;;8.93;8.03;;;19.10;99.90;;;;;;5033209;28;20178;-69
2021/08/29 05:59:59;;;;;;;7.50;6.90;;;19.10;99.90;;;;;;5035629;28;20416;-68
2021/08/29 06:02:25;;;;;;;8.73;7.90;;;19.20;99.90;;;;;;5046264;28;20506;-69
2021/08/29 06:04:51;;;;;;;8.43;7.57;;;19.20;99.90;;;;;;5042258;28;20184;-69
2021/08/29 06:07:16;;;;;;;8.73;7.50;;;19.20;99.90;;;;;;5040500;28;20534;-75
2021/08/29 06:09:42;;;;;;;9.60;8.00;;;19.20;99.90;;;;;;5047120;28;20622;-69
2021/08/29 06:12:08;;;;;;;7.97;7.17;;;19.20;99.90;;;;;;5054305;28;20194;-69
2021/08/29 06:14:34;;;;;;;8.13;7.47;;;19.20;99.90;;;;;;5048298;28;20256;-69
2021/08/29 06:16:59;;;;;;;8.00;7.20;;;19.30;99.90;;;;;;5039433;28;20428;-69
2021/08/29 06:19:25;;;;;;;8.00;7.30;;;19.30;99.90;;;;;;5044837;28;20219;-69
2021/08/29 06:21:51;;;;;;;8.00;7.20;;;19.30;99.90;;;;;;5033982;28;20317;-69
2021/08/29 06:24:17;;;;;;;7.77;7.07;;;19.20;99.90;;;;;;5036628;28;20202;-73
2021/08/29 06:26:42;;;;;;;7.93;7.33;;;19.20;99.90;;;;;;5053246;28;20416;-69
2021/08/29 06:29:09;;;;;;;8.93;7.97;;;19.20;99.90;;;;;;5038351;28;20336;-69
2021/08/29 06:31:35;;;;;;;7.60;6.90;;;19.20;99.90;;;;;;5048992;28;20250;-69
2021/08/29 06:34:00;;;;;;;7.70;7.10;;;19.20;99.90;;;;;;5051917;28;20503;-69
2021/08/29 06:36:26;;;;;;;10.63;7.83;;;19.20;99.90;;;;;;5051284;28;20173;-69
2021/08/29 06:38:52;;;;;;;11.47;7.77;;;19.20;99.90;;;;;;5052667;28;20312;-69
2021/08/29 06:41:18;;;;;;;8.70;7.23;;;19.20;99.90;;;;;;5051312;28;20185;-74
2021/08/29 06:43:43;;;;;;;8.47;7.50;;;19.20;99.90;;;;;;5052865;28;20178;-69
2021/08/29 06:46:09;;;;;;;8.87;8.00;;;19.20;99.90;;;;;;5048093;28;20626;-68
2021/08/29 06:48:35;;;;;;;7.43;6.67;;;19.20;99.90;;;;;;5024025;28;20216;-68
2021/08/29 06:51:00;;;;;;;7.13;6.43;;;19.20;99.90;;;;;;5053505;28;20177;-69
2021/08/29 06:53:26;;;;;;;8.33;7.17;;;19.30;99.90;;;;;;5064324;28;20193;-74
2021/08/29 06:55:53;;;;;;;7.10;6.50;;;19.30;99.90;;;;;;5053741;28;20235;-74
2021/08/29 06:58:19;;;;;;;8.07;7.37;;;19.40;99.90;;;;;;5066510;28;20454;-79
2021/08/29 07:00:44;;;;;;;8.63;7.80;;;19.50;99.90;;;;;;5071185;28;20267;-74
2021/08/29 07:03:10;;;;;;;8.23;7.43;;;19.60;99.90;;;;;;5056260;28;20192;-74
2021/08/29 07:05:36;;;;;;;8.60;7.73;;;19.60;99.90;;;;;;5051129;28;20188;-74
2021/08/29 07:08:02;;;;;;;11.57;8.10;;;19.70;99.90;;;;;;5063543;28;20420;-74
2021/08/29 07:10:28;;;;;;;7.20;6.50;;;19.80;99.90;;;;;;5050815;28;20284;-74
2021/08/29 07:12:53;;;;;;;8.60;7.87;;;19.80;99.90;;;;;;5052852;28;20646;-74
2021/08/29 07:15:19;;;;;;;8.50;7.70;;;19.80;99.90;;;;;;5054952;28;20215;-74
2021/08/29 07:17:45;;;;;;;10.10;7.47;;;19.90;99.90;;;;;;5052452;28;20197;-74
2021/08/29 07:20:11;;;;;;;8.90;7.17;;;19.90;99.90;;;;;;5052877;28;20742;-74
2021/08/29 07:22:37;;;;;;;8.60;7.90;;;20.00;99.90;;;;;;5052116;28;20184;-74
2021/08/29 07:25:03;;;;;;;7.40;6.80;;;20.00;99.90;;;;;;5057311;28;20495;-74
2021/08/29 07:27:28;;;;;;;6.57;6.07;;;20.00;99.90;;;;;;5058552;28;20633;-75
2021/08/29 07:29:54;;;;;;;7.70;7.00;;;20.00;99.90;;;;;;5060342;28;20177;-74
2021/08/29 07:32:20;;;;;;;9.20;7.03;;;20.00;99.90;;;;;;5059045;28;20228;-78
2021/08/29 07:34:46;;;;;;;8.70;7.40;;;20.00;99.90;;;;;;5059413;28;20462;-74
2021/08/29 07:37:12;;;;;;;6.87;6.27;;;20.00;99.90;;;;;;5061165;28;20407;-74
2021/08/29 07:39:37;;;;;;;7.47;6.63;;;20.00;99.90;;;;;;5062898;28;20196;-74
2021/08/29 07:42:03;;;;;;;7.07;6.47;;;20.00;99.90;;;;;;5061106;28;20180;-74
2021/08/29 07:44:29;;;;;;;6.47;5.97;;;20.00;99.90;;;;;;5061292;28;20185;-74
2021/08/29 07:46:55;;;;;;;8.27;7.40;;;20.00;99.90;;;;;;5072641;28;20491;-75
2021/08/29 07:49:20;;;;;;;6.47;5.83;;;19.90;99.90;;;;;;5055674;28;20225;-77
2021/08/29 07:51:46;;;;;;;6.77;6.17;;;20.00;99.90;;;;;;5037151;28;20292;-74
2021/08/29 07:54:12;;;;;;;8.33;6.23;;;19.90;99.90;;;;;;5052599;28;20181;-75
2021/08/29 07:56:38;;;;;;;5.40;5.00;;;19.90;99.90;;;;;;5044871;28;20543;-75
2021/08/29 07:59:03;;;;;;;6.07;5.57;;;20.00;99.90;;;;;;5041391;28;20232;-74
2021/08/29 08:01:29;;;;;;;7.93;7.23;;;20.00;99.90;;;;;;5044374;28;20668;-74
2021/08/29 08:03:55;;;;;;;8.10;7.27;;;20.00;99.90;;;;;;5031811;28;20236;-74
2021/08/29 08:06:21;;;;;;;6.73;6.27;;;19.90;99.90;;;;;;5032342;28;20173;-74
2021/08/29 08:08:47;;;;;;;7.17;6.70;;;19.90;99.90;;;;;;5031297;28;20173;-74
2021/08/29 08:11:12;;;;;;;6.90;6.40;;;19.90;99.90;;;;;;5032277;28;20405;-73
2021/08/29 08:13:38;;;;;;;7.03;6.63;;;19.90;99.90;;;;;;5042982;28;20249;-76
2021/08/29 08:16:04;;;;;;;12.33;8.57;;;19.90;99.90;;;;;;5030918;28;20598;-74
2021/08/29 08:18:30;;;;;;;6.87;6.30;;;19.90;99.90;;;;;;5014321;28;20236;-79
2021/08/29 08:20:57;;;;;;;140.73;95.90;;;19.90;99.90;;;;;;5031863;28;20809;-79
2021/08/29 08:23:23;;;;;;;209.23;175.27;;;19.90;99.90;;;;;;5046182;28;20603;-75
2021/08/29 08:25:48;;;;;;;15.40;13.80;;;19.90;99.90;;;;;;5044658;28;20494;-74
2021/08/29 08:28:14;;;;;;;7.47;6.77;;;20.00;99.90;;;;;;5051724;28;20922;-74
2021/08/29 08:30:40;;;;;;;13.70;12.27;;;20.00;99.90;;;;;;5014121;28;20175;-75
2021/08/29 08:33:05;;;;;;;8.33;7.63;;;20.00;99.90;;;;;;5031922;28;20217;-74
2021/08/29 08:35:31;;;;;;;5.10;4.70;;;20.00;99.90;;;;;;5042746;28;20185;-72
2021/08/29 08:37:57;;;;;;;4.60;4.30;;;20.00;99.90;;;;;;5051672;28;20272;-86
2021/08/29 08:40:23;;;;;;;5.70;5.20;;;20.00;99.90;;;;;;5050979;28;20174;-87
2021/08/29 08:42:49;;;;;;;4.63;4.33;;;19.90;99.90;;;;;;5051237;28;20189;-86
2021/08/29 08:45:15;;;;;;;5.27;4.97;;;19.80;99.90;;;;;;5034189;28;20553;-87
2021/08/29 08:47:43;;;;;;;4.17;3.97;;;19.70;99.90;;;;;;5050750;28;20416;-72
2021/08/29 08:50:11;;;;;;;5.23;4.93;;;19.60;99.90;;;;;;5039733;28;20538;-71
2021/08/29 08:52:38;;;;;;;5.30;5.00;;;19.50;99.90;;;;;;5013376;28;20964;-71
2021/08/29 08:55:05;;;;;;;5.83;5.53;;;19.40;99.90;;;;;;5031845;28;20497;-71
2021/08/29 08:57:31;;;;;;;6.10;5.70;;;19.30;99.90;;;;;;5030444;28;20451;-72
2021/08/29 08:59:57;;;;;;;9.17;4.90;;;19.20;99.90;;;;;;5031771;28;20832;-71
2021/08/29 09:02:24;;;;;;;4.70;4.50;;;19.10;99.90;;;;;;5032693;28;20509;-74
2021/08/29 09:04:51;;;;;;;5.80;5.40;;;19.10;99.90;;;;;;5037443;28;20182;-71
2021/08/29 09:07:18;;;;;;;4.00;3.80;;;19.00;99.90;;;;;;5036947;28;20503;-72
2021/08/29 09:09:43;;;;;;;5.33;5.03;;;19.00;99.90;;;;;;5054657;28;20450;-86
2021/08/29 09:12:10;;;;;;;4.30;4.00;;;19.00;99.90;;;;;;5055272;28;20451;-87
2021/08/29 09:14:47;;;;;;;4.83;4.53;;;19.00;99.90;;;;;;5046050;28;20458;-88
2021/08/29 09:17:29;;;;;;;5.07;4.87;;;18.90;99.90;;;;;;5040328;28;20830;-88
2021/08/29 09:20:18;;;;;;;4.40;4.20;;;18.90;99.90;;;;;;5037822;28;20487;-87
2021/08/29 09:22:47;;;;;;;5.10;4.80;;;18.80;99.90;;;;;;5042069;28;20409;-90
2021/08/29 09:25:15;;;;;;;4.80;4.50;;;18.80;99.90;;;;;;5035731;28;20423;-88
2021/08/29 09:27:46;;;;;;;4.40;4.20;;;18.80;99.90;;;;;;5039067;28;20451;-87
2021/08/29 09:30:14;;;;;;;4.50;4.30;;;18.80;99.90;;;;;;5037225;28;20416;-90
2021/08/29 09:33:04;;;;;;;4.37;4.17;;;18.80;99.90;;;;;;5016112;28;20452;-87
2021/08/29 09:35:34;;;;;;;4.00;3.80;;;18.70;99.90;;;;;;5033072;28;20535;-77
2021/08/29 09:38:03;;;;;;;4.17;3.97;;;18.70;99.90;;;;;;5034141;28;20458;-87
2021/08/29 09:40:33;;;;;;;3.80;3.60;;;18.60;99.90;;;;;;5034085;28;20448;-78
2021/08/29 09:43:02;;;;;;;4.00;3.80;;;18.60;99.90;;;;;;5033752;28;20405;-84
2021/08/29 09:45:31;;;;;;;4.20;4.00;;;18.50;99.90;;;;;;5037071;28;20466;-77
2021/08/29 09:48:08;;;;;;;4.70;4.40;;;18.50;99.90;;;;;;5033757;28;20453;-87
2021/08/29 09:50:36;;;;;;;5.27;4.97;;;18.50;99.90;;;;;;5033139;28;20436;-86
2021/08/29 09:53:12;;;;;;;4.37;4.17;;;18.50;99.90;;;;;;5044843;28;20471;-87
2021/08/29 09:55:40;;;;;;;4.10;3.90;;;18.50;99.90;;;;;;5033428;28;20447;-87
2021/08/29 09:58:27;;;;;;;3.27;3.07;;;18.30;99.90;;;;;;5033848;28;20410;-86
2021/08/29 10:01:11;;;;;;;3.40;3.30;;;18.30;99.90;;;;;;5039746;28;20955;-88
2021/08/29 10:03:48;;;;;;;153.60;113.63;;;18.30;99.90;;;;;;5041507;28;20478;-88
2021/08/29 10:06:27;;;;;;;61.67;46.30;;;18.30;99.90;;;;;;5035941;28;20770;-86
2021/08/29 10:09:01;;;;;;;396.03;342.73;;;18.30;99.90;;;;;;5048200;28;20421;-89
2021/08/29 10:11:29;;;;;;;11.83;10.77;;;18.30;99.90;;;;;;5039710;28;20500;-78
2021/08/29 10:13:56;;;;;;;3.90;3.80;;;18.30;99.90;;;;;;5053978;28;20472;-74
2021/08/29 10:16:24;;;;;;;4.47;4.27;;;18.50;99.90;;;;;;5046865;28;20458;-74
2021/08/29 10:18:53;;;;;;;4.30;4.07;;;18.60;99.90;;;;;;5042202;28;20409;-74
2021/08/29 10:21:22;;;;;;;3.20;3.10;;;18.80;99.90;;;;;;5041320;28;20433;-74
2021/08/29 10:23:51;;;;;;;3.50;3.40;;;18.90;99.90;;;;;;5011523;28;21098;-75
2021/08/29 10:26:20;;;;;;;4.87;4.67;;;19.10;99.90;;;;;;5052205;28;20416;-74
2021/08/29 10:29:07;;;;;;;348.40;308.20;;;19.20;99.90;;;;;;5053050;28;20404;-74
2021/08/29 10:31:47;;;;;;;251.67;218.10;;;19.40;99.90;;;;;;5053111;28;20409;-75
2021/08/29 10:34:14;;;;;;;9.30;8.50;;;19.60;99.90;;;;;;5020976;28;20433;-74
2021/08/29 10:36:40;;;;;;;6.73;6.23;;;19.60;99.90;;;;;;5034096;28;20516;-74
2021/08/29 10:39:06;;;;;;;3.80;3.60;;;19.70;99.90;;;;;;5038317;28;20420;-72
2021/08/29 10:41:32;;;;;;;3.70;3.50;;;19.80;99.90;;;;;;5034242;28;20420;-75
2021/08/29 10:43:58;;;;;;;3.60;3.50;;;19.80;99.90;;;;;;5037503;28;20429;-70
2021/08/29 10:46:24;;;;;;;3.30;3.20;;;19.80;99.90;;;;;;5052589;28;20424;-69
2021/08/29 10:48:51;;;;;;;4.70;4.50;;;19.90;99.90;;;;;;5034065;28;20271;-69
2021/08/29 10:51:19;;;;;;;5.20;4.90;;;19.90;99.90;;;;;;5040710;28;20214;-69
2021/08/29 10:53:57;;;;;;;4.33;4.03;;;20.00;99.90;;;;;;5037656;28;20456;-69
2021/08/29 10:56:22;;;;;;;4.40;4.30;;;19.90;99.90;;;;;;5040065;28;20423;-68
2021/08/29 10:59:09;;;;;;;4.20;4.00;;;19.90;99.90;;;;;;5052605;28;20405;-68
2021/08/29 11:01:39;;;;;;;3.20;3.10;;;19.90;99.90;;;;;;5038037;28;20185;-69
2021/08/29 11:04:17;;;;;;;3.50;3.40;;;20.00;99.90;;;;;;5043539;28;20420;-68
2021/08/29 11:06:50;;;;;;;3.10;3.00;;;20.00;99.90;;;;;;5052156;28;20404;-68
2021/08/29 11:12:26;;;;;;;3.37;3.17;;;20.10;99.90;;;;;;5032811;28;20551;-68
2021/08/29 11:14:56;;;;;;;3.30;3.20;;;20.10;99.90;;;;;;5039538;28;21008;-68
2021/08/29 11:17:58;;;;;;;3.40;3.20;;;20.10;99.90;;;;;;5034411;28;20424;-68
2021/08/29 11:20:24;;;;;;;3.10;2.67;;;20.10;99.90;;;;;;5033151;28;20416;-68
2021/08/29 11:22:50;;;;;;;3.13;3.03;;;20.10;99.90;;;;;;5032120;28;20913;-69
2021/08/29 11:25:24;;;;;;;3.00;2.90;;;20.10;99.90;;;;;;5033047;28;20186;-70
2021/08/29 11:27:55;;;;;;;3.70;3.60;;;20.10;99.90;;;;;;5047712;28;20421;-68
2021/08/29 11:30:27;;;;;;;3.63;3.53;;;20.10;99.90;;;;;;5040999;28;20879;-68
2021/08/29 11:32:59;;;;;;;4.00;3.80;;;20.10;99.90;;;;;;5032993;28;20925;-68
2021/08/29 11:35:33;;;;;;;142.40;110.83;;;20.10;99.90;;;;;;5032983;28;20839;-68
2021/08/29 11:38:17;;;;;;;267.67;226.83;;;20.00;99.90;;;;;;5032258;28;20466;-68
2021/08/29 11:41:16;;;;;;;22.83;20.43;;;20.10;99.90;;;;;;5031916;28;20421;-69
2021/08/29 11:43:46;;;;;;;5.13;4.93;;;20.10;99.90;;;;;;5025960;28;20783;-68
2021/08/29 11:46:23;;;;;;;5.27;5.07;;;20.10;99.90;;;;;;5014999;28;20893;-69
2021/08/29 11:48:55;;;;;;;5.47;5.07;;;20.20;99.90;;;;;;5031068;28;20457;-69
2021/08/29 11:51:29;;;;;;;12.53;11.40;;;20.10;99.90;;;;;;5034941;28;20421;-68
2021/08/29 11:53:56;;;;;;;7.00;6.50;;;20.10;99.90;;;;;;5051619;28;20718;-68
2021/08/29 11:56:27;;;;;;;6.67;6.27;;;20.20;99.90;;;;;;5051980;28;20473;-68
2021/08/29 11:58:54;;;;;;;6.83;6.43;;;20.20;99.90;;;;;;5051425;28;20435;-68
2021/08/29 12:01:20;;;;;;;7.50;7.00;;;20.30;99.90;;;;;;5048374;28;20421;-68
2021/08/29 12:03:46;;;;;;;7.30;6.80;;;20.20;99.90;;;;;;5045408;28;20436;-68
2021/08/29 12:06:33;;;;;;;7.93;7.43;;;20.20;99.90;;;;;;5043851;28;20413;-70
2021/08/29 12:09:25;;;;;;;10.27;9.57;;;20.20;99.90;;;;;;5042522;28;20479;-68
2021/08/29 12:11:52;;;;;;;8.73;8.13;;;20.20;99.90;;;;;;5037892;28;20413;-68
2021/08/29 12:14:20;;;;;;;9.73;9.03;;;20.20;99.90;;;;;;5032569;28;20409;-70
2021/08/29 12:16:51;;;;;;;10.00;9.20;;;20.20;99.90;;;;;;5050576;28;20421;-68
2021/08/29 12:19:29;;;;;;;10.00;9.23;;;20.20;99.90;;;;;;5020562;28;20417;-69
2021/08/29 12:21:56;;;;;;;10.87;9.97;;;20.20;99.90;;;;;;5051150;28;20550;-68
2021/08/29 12:24:25;;;;;;;9.50;8.80;;;20.30;99.90;;;;;;5048250;28;20412;-68
2021/08/29 12:27:06;;;;;;;9.00;8.40;;;20.30;99.90;;;;;;5050349;28;20530;-68
2021/08/29 12:29:48;;;;;;;8.60;8.00;;;20.40;99.90;;;;;;5051973;28;20955;-67
2021/08/29 12:32:25;;;;;;;10.57;9.60;;;20.40;99.90;;;;;;5050529;28;20850;-67
2021/08/29 12:35:05;;;;;;;9.40;8.70;;;20.40;99.90;;;;;;5046385;28;20505;-68
2021/08/29 12:37:34;;;;;;;9.10;8.40;;;20.50;99.90;;;;;;5034291;28;20400;-68
2021/08/29 12:40:08;;;;;;;16.90;15.40;;;20.50;99.90;;;;;;5039936;28;20467;-69
2021/08/29 12:42:41;;;;;;;29.47;24.13;;;20.60;99.90;;;;;;5048830;28;20411;-66
2021/08/29 12:45:12;;;;;;;371.50;288.23;;;20.60;99.90;;;;;;5056105;28;20434;-64
2021/08/29 12:47:43;;;;;;;21.87;19.70;;;20.60;99.90;;;;;;5055388;28;20400;-67
2021/08/29 12:50:11;;;;;;;7.10;6.63;;;20.60;99.90;;;;;;5047354;28;20555;-66
2021/08/29 12:52:42;;;;;;;6.20;5.77;;;20.60;99.90;;;;;;5051554;28;20451;-67
2021/08/29 12:55:16;;;;;;;7.67;7.07;;;20.60;99.90;;;;;;5054632;28;20927;-70